Terminal Aerodrome Forecast
Issued by NWS Huntsville, AL

Home | Current Version | Previous Version | Text Only | Print | Product List | Glossary On
Versions: 1 2 3 4 5 6 7 8 9 10 11 12 13 14 15 16 17
000
FTUS44 KHUN 232341
TAFMSL
TAF
KMSL 232341Z 2400/2424 31009KT P6SM BKN035
     FM240200 33006KT P6SM BKN025 OVC035
     FM240900 35003KT 5SM BR SCT035
     FM241500 VRB02KT P6SM SKC=

USA.gov is the U.S. government's official web portal to all federal, state and local government web resources and services.